createdAt,value
2022-11-30T00:00:50.309Z,8.13
2022-11-30T00:03:18.130Z,6.40
2022-11-30T00:05:45.937Z,6.38
2022-11-30T00:08:12.393Z,6.72
2022-11-30T00:10:40.175Z,5.07
2022-11-30T00:13:07.035Z,5.20
2022-11-30T00:15:33.886Z,5.65
2022-11-30T00:18:01.891Z,6.10
2022-11-30T00:20:30.233Z,4.65
2022-11-30T00:22:57.995Z,5.50
2022-11-30T00:25:26.160Z,5.50
2022-11-30T00:27:53.966Z,5.47
2022-11-30T00:30:23.111Z,5.03
2022-11-30T00:32:50.819Z,5.05
2022-11-30T00:35:18.731Z,4.18
2022-11-30T00:37:46.378Z,4.57
2022-11-30T00:40:14.515Z,4.05
2022-11-30T00:42:42.363Z,4.38
2022-11-30T00:45:09.154Z,4.72
2022-11-30T00:47:36.160Z,3.95
2022-11-30T00:50:04.187Z,4.88
2022-11-30T00:52:31.703Z,4.93
2022-11-30T00:55:01.682Z,4.55
2022-11-30T00:57:31.800Z,5.22
2022-11-30T00:59:58.195Z,4.10
2022-11-30T01:02:26.050Z,4.10
2022-11-30T01:04:52.901Z,4.00
2022-11-30T01:07:19.643Z,4.22
2022-11-30T01:09:47.126Z,4.00
2022-11-30T01:12:15.217Z,3.78
2022-11-30T01:14:41.646Z,3.88
2022-11-30T01:17:09.636Z,3.95
2022-11-30T01:19:37.282Z,3.50
2022-11-30T01:22:03.878Z,3.35
2022-11-30T01:24:31.496Z,3.95
2022-11-30T01:26:59.417Z,3.60
2022-11-30T01:29:26.961Z,3.80
2022-11-30T01:31:54.647Z,3.30
2022-11-30T01:34:22.234Z,2.63
2022-11-30T01:36:49.765Z,3.13
2022-11-30T01:39:16.180Z,2.47
2022-11-30T01:41:43.737Z,3.17
2022-11-30T01:44:32.759Z,2.08
2022-11-30T01:47:26.802Z,3.20
2022-11-30T01:49:56.301Z,2.03
2022-11-30T01:52:27.576Z,2.72
2022-11-30T01:55:08.534Z,2.63
2022-11-30T01:57:36.883Z,2.47
2022-11-30T02:00:09.633Z,2.58
2022-11-30T02:03:10.895Z,2.92
2022-11-30T02:05:38.337Z,2.00
2022-11-30T02:08:08.810Z,2.35
2022-11-30T02:10:37.092Z,2.85
2022-11-30T02:13:21.859Z,2.20
2022-11-30T02:15:58.920Z,2.22
2022-11-30T02:18:45.733Z,2.00
2022-11-30T02:21:12.136Z,2.17
2022-11-30T02:23:41.592Z,2.25
2022-11-30T02:26:27.311Z,1.67
2022-11-30T02:28:59.666Z,2.17
2022-11-30T02:31:31.060Z,1.92
2022-11-30T02:33:59.533Z,2.10
2022-11-30T02:36:28.415Z,2.20
2022-11-30T02:38:56.630Z,1.40
2022-11-30T02:41:24.444Z,1.75
2022-11-30T02:43:52.211Z,2.00
2022-11-30T02:46:35.296Z,1.95
2022-11-30T02:49:26.869Z,1.75
2022-11-30T02:51:54.115Z,1.05
2022-11-30T02:54:20.600Z,1.85
2022-11-30T02:56:48.228Z,1.90
2022-11-30T02:59:14.943Z,1.70
2022-11-30T03:01:42.718Z,1.80
2022-11-30T03:04:09.478Z,1.65
2022-11-30T03:06:37.329Z,2.17
2022-11-30T03:09:05.009Z,1.77
2022-11-30T03:11:33.471Z,1.83
2022-11-30T03:13:59.960Z,1.40
2022-11-30T03:16:27.737Z,1.58
2022-11-30T03:18:55.306Z,1.65
2022-11-30T03:21:23.330Z,1.77
2022-11-30T03:23:51.170Z,1.50
2022-11-30T03:26:18.852Z,1.55
2022-11-30T03:28:46.459Z,1.40
2022-11-30T03:31:13.496Z,1.83
2022-11-30T03:33:46.056Z,1.35
2022-11-30T03:36:13.613Z,1.63
2022-11-30T03:38:41.582Z,1.95
2022-11-30T03:41:10.433Z,1.30
2022-11-30T03:43:38.020Z,1.33
2022-11-30T03:46:06.333Z,1.20
2022-11-30T03:48:32.926Z,1.40
2022-11-30T03:51:00.694Z,1.55
2022-11-30T03:53:28.333Z,1.90
2022-11-30T03:55:57.729Z,1.40
2022-11-30T03:58:26.009Z,2.40
2022-11-30T04:01:12.063Z,2.35
2022-11-30T04:03:38.946Z,2.10
2022-11-30T04:06:08.109Z,1.65
2022-11-30T04:08:35.894Z,2.47
2022-11-30T04:11:03.943Z,1.80
2022-11-30T04:13:32.125Z,1.40
2022-11-30T04:16:00.398Z,1.20
2022-11-30T04:18:29.092Z,1.63
2022-11-30T04:20:56.235Z,1.45
2022-11-30T04:23:24.562Z,2.10
2022-11-30T04:25:52.432Z,1.58
2022-11-30T04:28:20.242Z,1.63
2022-11-30T04:30:48.223Z,1.40
2022-11-30T04:33:15.428Z,1.63
2022-11-30T04:35:50.764Z,1.00
2022-11-30T04:38:17.257Z,1.42
2022-11-30T04:40:43.940Z,1.00
2022-11-30T04:43:12.531Z,1.08
2022-11-30T04:45:40.720Z,1.20
2022-11-30T04:48:08.665Z,1.23
2022-11-30T04:50:37.916Z,0.90
2022-11-30T04:53:05.589Z,1.17
2022-11-30T04:55:33.748Z,1.10
2022-11-30T04:58:02.389Z,1.10
2022-11-30T05:00:29.902Z,1.52
2022-11-30T05:02:57.729Z,1.15
2022-11-30T05:05:25.628Z,0.88
2022-11-30T05:07:58.823Z,1.30
2022-11-30T05:10:27.946Z,1.00
2022-11-30T05:12:54.308Z,1.48
2022-11-30T05:15:22.115Z,0.98
2022-11-30T05:17:50.187Z,0.90
2022-11-30T05:20:17.904Z,1.25
2022-11-30T05:22:45.685Z,1.63
2022-11-30T05:25:13.207Z,1.20
2022-11-30T05:27:40.936Z,1.70
2022-11-30T05:30:08.103Z,1.30
2022-11-30T05:32:35.195Z,0.90
2022-11-30T05:35:02.816Z,0.90
2022-11-30T05:37:30.498Z,1.30
2022-11-30T05:39:58.258Z,1.45
2022-11-30T05:42:24.823Z,1.55
2022-11-30T05:44:52.329Z,1.38
2022-11-30T05:47:19.987Z,1.50
2022-11-30T05:49:46.420Z,1.48
2022-11-30T05:52:12.882Z,1.48
2022-11-30T05:54:39.311Z,1.75
2022-11-30T05:57:05.746Z,2.00
2022-11-30T05:59:32.273Z,1.73
2022-11-30T06:01:58.819Z,1.83
2022-11-30T06:04:25.320Z,1.58
2022-11-30T06:06:55.871Z,1.85
2022-11-30T06:09:22.715Z,1.55
2022-11-30T06:11:49.297Z,1.15
2022-11-30T06:14:15.787Z,1.10
2022-11-30T06:16:42.250Z,1.40
2022-11-30T06:19:08.743Z,1.23
2022-11-30T06:21:35.251Z,1.98
2022-11-30T06:24:01.791Z,1.40
2022-11-30T06:26:28.251Z,1.77
2022-11-30T06:28:54.816Z,1.77
2022-11-30T06:31:21.299Z,1.92
2022-11-30T06:33:47.742Z,1.83
2022-11-30T06:36:14.211Z,1.60
2022-11-30T06:38:40.692Z,1.58
2022-11-30T06:41:09.099Z,1.73
2022-11-30T06:43:36.623Z,2.25
2022-11-30T06:46:03.969Z,1.65
2022-11-30T06:48:30.486Z,2.47
2022-11-30T06:50:57.219Z,2.30
2022-11-30T06:53:23.673Z,1.60
2022-11-30T06:55:50.168Z,1.65
2022-11-30T06:58:16.675Z,1.30
2022-11-30T07:00:43.312Z,1.35
2022-11-30T07:03:11.003Z,1.60
2022-11-30T07:05:42.087Z,1.83
2022-11-30T07:08:08.514Z,1.40
2022-11-30T07:10:38.663Z,1.70
2022-11-30T07:13:05.094Z,1.73
2022-11-30T07:15:31.486Z,2.70
2022-11-30T07:18:00.270Z,3.53
2022-11-30T07:20:26.770Z,3.22
2022-11-30T07:22:56.255Z,2.50
2022-11-30T07:25:41.383Z,3.30
2022-11-30T07:28:08.885Z,3.00
2022-11-30T07:30:35.311Z,2.42
2022-11-30T07:33:01.812Z,1.67
2022-11-30T07:35:28.214Z,1.85
2022-11-30T07:37:54.617Z,1.65
2022-11-30T07:40:21.060Z,3.38
2022-11-30T07:42:47.482Z,2.63
2022-11-30T07:45:13.936Z,1.85
2022-11-30T07:47:40.386Z,2.40
2022-11-30T07:50:07.196Z,3.55
2022-11-30T07:52:33.718Z,4.00
2022-11-30T07:55:00.134Z,2.67
2022-11-30T07:57:27.406Z,2.20
2022-11-30T07:59:53.820Z,3.15
2022-11-30T08:02:20.369Z,2.70
2022-11-30T08:04:47.354Z,3.30
2022-11-30T08:07:14.738Z,2.42
2022-11-30T08:09:41.157Z,2.08
2022-11-30T08:12:07.794Z,3.03
2022-11-30T08:14:50.421Z,3.30
2022-11-30T08:17:20.757Z,3.60
2022-11-30T08:19:47.448Z,3.65
2022-11-30T08:44:14.080Z,4.50
2022-11-30T08:46:51.544Z,8.15
2022-11-30T08:49:23.365Z,11.52
2022-11-30T14:28:40.046Z,5.47
2022-11-30T14:31:09.173Z,5.78
2022-11-30T14:33:41.712Z,7.45
2022-11-30T14:36:09.427Z,7.20
2022-11-30T14:38:38.746Z,5.50
2022-11-30T14:41:05.854Z,5.47
2022-11-30T14:43:32.322Z,7.53
2022-11-30T14:46:06.451Z,5.15
2022-11-30T14:48:35.816Z,5.95
2022-11-30T14:51:06.761Z,5.72
2022-11-30T14:53:39.133Z,8.43
2022-11-30T14:56:18.134Z,14.07
2022-11-30T14:58:50.321Z,10.55
2022-11-30T15:01:19.032Z,12.18
2022-11-30T15:03:46.151Z,15.35
2022-11-30T15:06:18.051Z,12.95
2022-11-30T15:11:12.256Z,10.50
2022-11-30T15:13:40.595Z,10.07
2022-11-30T15:16:16.828Z,23.70
2022-11-30T15:18:43.324Z,22.48
2022-11-30T15:21:15.479Z,13.23
2022-11-30T15:23:44.554Z,31.08
2022-11-30T15:26:19.757Z,50.85
2022-11-30T15:28:50.260Z,29.58
2022-11-30T15:31:16.774Z,7.78
2022-11-30T15:33:45.564Z,9.50
2022-11-30T15:36:27.822Z,7.22
2022-11-30T15:38:58.814Z,8.73
2022-11-30T15:41:25.658Z,8.73
2022-11-30T15:43:53.832Z,6.90
2022-11-30T15:46:39.971Z,8.00
2022-11-30T15:49:10.919Z,8.73
2022-11-30T15:51:39.031Z,7.03
2022-11-30T15:54:05.535Z,7.97
2022-11-30T15:56:32.049Z,12.60
2022-11-30T15:59:02.440Z,12.65
2022-11-30T16:01:30.253Z,13.23
2022-11-30T16:03:59.694Z,11.68
2022-11-30T16:06:36.569Z,10.40
2022-11-30T16:09:26.785Z,6.45
2022-11-30T16:11:54.077Z,4.85
2022-11-30T16:14:20.514Z,5.25
2022-11-30T16:16:47.010Z,5.15
2022-11-30T16:19:13.571Z,4.68
2022-11-30T16:21:40.110Z,5.07
2022-11-30T16:24:06.622Z,6.72
2022-11-30T16:26:50.526Z,6.65
2022-11-30T16:29:17.646Z,7.20
2022-11-30T16:31:44.245Z,7.35
2022-11-30T16:34:11.626Z,10.43
2022-11-30T16:36:38.959Z,9.27
2022-11-30T16:39:05.835Z,12.32
2022-11-30T16:41:34.594Z,5.60
2022-11-30T16:44:01.104Z,7.40
2022-11-30T16:46:28.634Z,5.20
2022-11-30T16:48:55.227Z,5.30
2022-11-30T16:51:29.916Z,5.93
2022-11-30T16:53:56.534Z,7.55
2022-11-30T16:56:23.477Z,8.63
2022-11-30T16:58:50.237Z,51.78
2022-11-30T17:01:53.422Z,34.00
2022-11-30T17:04:21.170Z,136.20
2022-11-30T17:06:50.613Z,98.47
2022-11-30T17:09:18.077Z,82.97
2022-11-30T17:11:46.870Z,62.20
2022-11-30T17:14:14.202Z,40.97
2022-11-30T17:16:41.116Z,42.53
2022-11-30T17:19:10.163Z,23.63
2022-11-30T17:21:37.678Z,16.92
2022-11-30T17:24:04.819Z,10.90
2022-11-30T17:26:31.269Z,18.30
2022-11-30T17:28:57.753Z,23.77
2022-11-30T17:31:24.349Z,15.43
2022-11-30T17:33:50.839Z,10.45
2022-11-30T17:36:18.885Z,14.10
2022-11-30T17:38:45.433Z,33.42
2022-11-30T17:41:19.151Z,25.05
2022-11-30T17:43:46.232Z,68.68
2022-11-30T17:46:15.854Z,45.70
2022-11-30T17:48:43.005Z,13.10
2022-11-30T17:51:09.650Z,24.33
2022-11-30T17:53:39.394Z,22.23
2022-11-30T17:56:16.316Z,8.88
2022-11-30T17:58:44.422Z,8.82
2022-11-30T18:01:18.528Z,12.48
2022-11-30T18:03:45.384Z,11.52
2022-11-30T18:06:13.506Z,13.98
2022-11-30T18:08:40.530Z,8.90
2022-11-30T18:11:08.040Z,9.10
2022-11-30T18:13:34.531Z,12.27
2022-11-30T18:16:12.029Z,5.13
2022-11-30T18:18:42.831Z,4.10
2022-11-30T18:21:13.387Z,4.80
2022-11-30T18:23:41.177Z,4.00
2022-11-30T18:26:12.175Z,5.38
2022-11-30T18:28:38.643Z,3.53
2022-11-30T18:31:08.311Z,5.38
2022-11-30T18:33:35.158Z,5.45
2022-11-30T18:36:02.304Z,5.38
2022-11-30T18:38:32.865Z,5.00
2022-11-30T18:41:03.875Z,3.72
2022-11-30T18:43:33.912Z,3.80
2022-11-30T18:46:11.197Z,5.22
2022-11-30T18:48:38.279Z,4.45
2022-11-30T18:51:17.046Z,6.95
2022-11-30T18:53:43.686Z,4.93
2022-11-30T18:56:15.112Z,8.05
2022-11-30T18:58:42.459Z,5.97
2022-11-30T19:01:16.160Z,7.03
2022-11-30T19:03:43.013Z,6.80
2022-11-30T19:06:10.160Z,6.85
2022-11-30T19:08:36.855Z,6.38
2022-11-30T19:11:05.463Z,6.15
2022-11-30T19:13:34.901Z,5.50
2022-11-30T19:16:05.205Z,4.78
2022-11-30T19:18:32.224Z,5.50
2022-11-30T19:20:59.211Z,4.20
2022-11-30T19:23:25.973Z,5.93
2022-11-30T19:25:52.746Z,4.50
2022-11-30T19:28:19.179Z,4.63
2022-11-30T19:30:45.784Z,5.35
2022-11-30T19:33:14.163Z,4.25
2022-11-30T19:35:40.729Z,4.60
2022-11-30T19:38:07.291Z,4.28
2022-11-30T19:40:33.706Z,4.22
2022-11-30T19:43:00.245Z,6.35
2022-11-30T19:45:26.682Z,6.13
2022-11-30T19:47:53.101Z,10.88
2022-11-30T19:50:19.679Z,7.00
2022-11-30T19:52:46.426Z,5.50
2022-11-30T19:55:12.948Z,7.28
2022-11-30T19:57:39.630Z,4.93
2022-11-30T20:00:06.738Z,6.13
2022-11-30T20:02:33.541Z,3.88
2022-11-30T20:05:00.087Z,4.43
2022-11-30T20:07:26.696Z,4.75
2022-11-30T20:09:53.209Z,3.90
2022-11-30T20:12:19.717Z,3.90
2022-11-30T20:14:48.334Z,4.60
2022-11-30T20:17:14.952Z,3.72
2022-11-30T20:19:41.502Z,4.60
2022-11-30T20:22:09.515Z,4.53
2022-11-30T20:24:36.357Z,4.78
2022-11-30T20:27:05.927Z,3.95
2022-11-30T20:29:32.368Z,4.55
2022-11-30T20:31:58.780Z,4.43
2022-11-30T20:34:28.578Z,4.18
2022-11-30T20:36:59.288Z,3.90
2022-11-30T20:39:25.727Z,4.30
2022-11-30T20:41:52.237Z,3.58
2022-11-30T20:44:19.207Z,3.28
2022-11-30T20:46:45.816Z,3.40
2022-11-30T20:49:17.942Z,4.65
2022-11-30T20:51:44.988Z,3.58
2022-11-30T20:54:12.732Z,3.20
2022-11-30T20:56:39.344Z,6.72
2022-11-30T20:59:07.799Z,6.60
2022-11-30T21:01:34.709Z,3.00
2022-11-30T21:04:01.480Z,4.32
2022-11-30T21:06:28.853Z,7.53
2022-11-30T21:08:55.370Z,3.92
2022-11-30T21:11:21.917Z,3.75
2022-11-30T21:13:49.223Z,4.10
2022-11-30T21:16:16.866Z,3.55
2022-11-30T21:18:44.961Z,3.38
2022-11-30T21:21:13.191Z,3.72
2022-11-30T21:23:39.764Z,3.30
2022-11-30T21:26:07.526Z,8.27
2022-11-30T21:28:38.012Z,5.07
2022-11-30T21:31:05.466Z,4.13
2022-11-30T21:33:31.995Z,3.65
2022-11-30T21:35:58.664Z,3.60
2022-11-30T21:38:25.077Z,2.90
2022-11-30T21:40:58.264Z,3.25
2022-11-30T21:43:25.185Z,3.15
2022-11-30T21:45:57.829Z,3.55
2022-11-30T21:48:24.269Z,4.20
2022-11-30T21:50:56.534Z,2.60
2022-11-30T21:53:22.956Z,2.83
2022-11-30T21:55:52.889Z,2.33
2022-11-30T21:58:22.684Z,2.40
2022-11-30T22:00:55.873Z,2.20
2022-11-30T22:03:22.438Z,2.85
2022-11-30T22:06:18.349Z,2.35
2022-11-30T22:08:45.047Z,2.40
2022-11-30T22:11:12.470Z,2.50
2022-11-30T22:13:39.645Z,2.58
2022-11-30T22:16:06.287Z,2.75
2022-11-30T22:18:32.864Z,2.90
2022-11-30T22:21:04.161Z,2.75
2022-11-30T22:23:31.554Z,3.20
2022-11-30T22:26:08.160Z,2.00
2022-11-30T22:28:35.300Z,2.75
2022-11-30T22:31:05.491Z,3.22
2022-11-30T22:33:33.933Z,2.78
2022-11-30T22:36:00.640Z,2.60
2022-11-30T22:38:28.767Z,2.45
2022-11-30T22:40:55.398Z,2.08
2022-11-30T22:43:22.684Z,2.03
2022-11-30T22:45:49.324Z,2.50
2022-11-30T22:48:16.504Z,2.67
2022-11-30T22:50:42.927Z,2.20
2022-11-30T22:53:10.666Z,1.95
2022-11-30T22:55:37.207Z,3.00
2022-11-30T22:58:05.317Z,3.15
2022-11-30T23:00:31.753Z,2.88
2022-11-30T23:02:58.214Z,2.40
2022-11-30T23:05:24.760Z,2.80
2022-11-30T23:07:51.216Z,2.38
2022-11-30T23:10:19.103Z,2.45
2022-11-30T23:12:59.266Z,2.60
2022-11-30T23:15:26.469Z,2.17
2022-11-30T23:17:57.272Z,2.15
2022-11-30T23:20:26.947Z,2.20
2022-11-30T23:22:54.853Z,2.30
2022-11-30T23:25:21.293Z,2.50
2022-11-30T23:27:48.846Z,3.17
2022-11-30T23:30:16.676Z,2.40
2022-11-30T23:32:43.193Z,2.55
2022-11-30T23:35:11.099Z,2.53
2022-11-30T23:37:37.591Z,2.45
2022-11-30T23:40:05.608Z,2.38
2022-11-30T23:42:32.107Z,2.05
2022-11-30T23:45:01.201Z,2.28
2022-11-30T23:47:28.904Z,2.10
2022-11-30T23:49:56.983Z,1.92
2022-11-30T23:52:27.219Z,2.33
2022-11-30T23:54:53.668Z,2.38
2022-11-30T23:57:21.356Z,2.30
2022-11-30T23:59:49.127Z,2.80
